sensor_id;sensor_type;location;lat;lon;timestamp;pressure;altitude;pressure_sealevel;temperature;humidity
12785;BME280;6456;42.680;23.260;2023-07-16T00:00:17;94863.94;;;25.23;100.00
12785;BME280;6456;42.680;23.260;2023-07-16T00:02:46;94880.00;;;25.28;100.00
12785;BME280;6456;42.680;23.260;2023-07-16T00:05:13;94792.91;;;24.60;100.00
12785;BME280;6456;42.680;23.260;2023-07-16T00:07:40;94849.84;;;24.99;100.00
12785;BME280;6456;42.680;23.260;2023-07-16T00:10:09;94776.16;;;24.49;100.00
12785;BME280;6456;42.680;23.260;2023-07-16T00:12:36;94826.53;;;24.76;100.00
12785;BME280;6456;42.680;23.260;2023-07-16T00:15:04;94876.19;;;25.02;100.00
12785;BME280;6456;42.680;23.260;2023-07-16T00:17:31;94815.03;;;24.70;100.00
12785;BME280;6456;42.680;23.260;2023-07-16T00:19:58;94791.25;;;24.45;100.00
12785;BME280;6456;42.680;23.260;2023-07-16T00:22:26;94776.91;;;24.36;100.00
12785;BME280;6456;42.680;23.260;2023-07-16T00:24:53;94839.56;;;24.69;100.00
12785;BME280;6456;42.680;23.260;2023-07-16T00:27:21;94885.13;;;24.98;100.00
12785;BME280;6456;42.680;23.260;2023-07-16T00:29:48;94817.72;;;24.57;100.00
12785;BME280;6456;42.680;23.260;2023-07-16T00:32:15;94881.75;;;24.92;100.00
12785;BME280;6456;42.680;23.260;2023-07-16T00:34:42;94849.25;;;24.70;100.00
12785;BME280;6456;42.680;23.260;2023-07-16T00:37:09;94807.41;;;24.45;100.00
12785;BME280;6456;42.680;23.260;2023-07-16T00:39:36;94818.38;;;24.49;100.00
12785;BME280;6456;42.680;23.260;2023-07-16T00:42:03;94774.16;;;24.22;100.00
12785;BME280;6456;42.680;23.260;2023-07-16T00:44:32;94807.28;;;24.37;100.00
12785;BME280;6456;42.680;23.260;2023-07-16T00:46:59;94874.97;;;24.95;100.00
12785;BME280;6456;42.680;23.260;2023-07-16T00:49:26;94818.97;;;24.46;100.00
12785;BME280;6456;42.680;23.260;2023-07-16T00:51:54;94849.84;;;24.67;100.00
12785;BME280;6456;42.680;23.260;2023-07-16T00:54:22;94827.44;;;24.53;100.00
12785;BME280;6456;42.680;23.260;2023-07-16T00:56:49;94880.72;;;24.88;100.00
12785;BME280;6456;42.680;23.260;2023-07-16T00:59:16;94810.69;;;24.42;100.00
12785;BME280;6456;42.680;23.260;2023-07-16T01:01:45;94823.53;;;24.45;100.00
12785;BME280;6456;42.680;23.260;2023-07-16T01:04:12;94783.09;;;24.18;100.00
12785;BME280;6456;42.680;23.260;2023-07-16T01:06:40;94772.34;;;23.99;100.00
12785;BME280;6456;42.680;23.260;2023-07-16T01:09:12;94820.47;;;24.19;100.00
12785;BME280;6456;42.680;23.260;2023-07-16T01:11:42;94873.91;;;24.58;100.00
12785;BME280;6456;42.680;23.260;2023-07-16T01:14:10;94786.88;;;23.98;100.00
12785;BME280;6456;42.680;23.260;2023-07-16T01:16:40;94876.59;;;24.58;100.00
12785;BME280;6456;42.680;23.260;2023-07-16T01:19:09;94886.13;;;24.51;100.00
12785;BME280;6456;42.680;23.260;2023-07-16T01:21:42;94808.97;;;23.95;100.00
12785;BME280;6456;42.680;23.260;2023-07-16T01:24:41;94887.53;;;24.48;100.00
12785;BME280;6456;42.680;23.260;2023-07-16T01:27:33;94837.09;;;24.21;100.00
12785;BME280;6456;42.680;23.260;2023-07-16T01:30:08;94830.78;;;24.12;100.00
12785;BME280;6456;42.680;23.260;2023-07-16T01:32:36;94865.28;;;24.43;100.00
12785;BME280;6456;42.680;23.260;2023-07-16T01:35:05;94856.78;;;24.36;100.00
12785;BME280;6456;42.680;23.260;2023-07-16T01:37:32;94835.81;;;24.19;100.00
12785;BME280;6456;42.680;23.260;2023-07-16T01:39:59;94834.00;;;24.14;100.00
12785;BME280;6456;42.680;23.260;2023-07-16T01:42:27;94830.88;;;24.07;100.00
12785;BME280;6456;42.680;23.260;2023-07-16T01:44:54;94827.41;;;23.83;100.00
12785;BME280;6456;42.680;23.260;2023-07-16T01:47:24;94854.56;;;24.00;100.00
12785;BME280;6456;42.680;23.260;2023-07-16T01:49:56;94761.09;;;23.41;100.00
12785;BME280;6456;42.680;23.260;2023-07-16T01:52:23;94879.16;;;24.12;100.00
12785;BME280;6456;42.680;23.260;2023-07-16T01:54:50;94844.50;;;23.92;100.00
12785;BME280;6456;42.680;23.260;2023-07-16T01:57:17;94827.97;;;23.80;100.00
12785;BME280;6456;42.680;23.260;2023-07-16T01:59:44;94826.97;;;23.76;100.00
12785;BME280;6456;42.680;23.260;2023-07-16T02:02:11;94839.97;;;23.88;100.00
12785;BME280;6456;42.680;23.260;2023-07-16T02:04:39;94887.63;;;24.25;100.00
12785;BME280;6456;42.680;23.260;2023-07-16T02:07:06;94812.97;;;23.79;100.00
12785;BME280;6456;42.680;23.260;2023-07-16T02:09:34;94817.22;;;23.80;100.00
12785;BME280;6456;42.680;23.260;2023-07-16T02:12:01;94810.28;;;23.79;100.00
12785;BME280;6456;42.680;23.260;2023-07-16T02:14:28;94770.75;;;23.61;100.00
12785;BME280;6456;42.680;23.260;2023-07-16T02:16:55;94878.25;;;24.22;100.00
12785;BME280;6456;42.680;23.260;2023-07-16T02:19:22;94878.25;;;24.22;100.00
12785;BME280;6456;42.680;23.260;2023-07-16T02:21:55;94786.31;;;23.64;100.00
12785;BME280;6456;42.680;23.260;2023-07-16T02:24:22;94863.84;;;24.13;100.00
12785;BME280;6456;42.680;23.260;2023-07-16T02:26:49;94828.88;;;23.94;100.00
12785;BME280;6456;42.680;23.260;2023-07-16T02:29:16;94836.88;;;23.99;100.00
12785;BME280;6456;42.680;23.260;2023-07-16T02:31:43;94830.59;;;23.85;100.00
12785;BME280;6456;42.680;23.260;2023-07-16T02:34:11;94896.19;;;24.27;100.00
12785;BME280;6456;42.680;23.260;2023-07-16T02:36:38;94892.19;;;24.24;100.00
12785;BME280;6456;42.680;23.260;2023-07-16T02:39:07;94893.06;;;24.19;100.00
12785;BME280;6456;42.680;23.260;2023-07-16T02:41:34;94855.53;;;23.91;100.00
12785;BME280;6456;42.680;23.260;2023-07-16T02:44:03;94882.72;;;24.08;100.00
12785;BME280;6456;42.680;23.260;2023-07-16T02:46:30;94897.91;;;24.17;100.00
12785;BME280;6456;42.680;23.260;2023-07-16T02:48:57;94876.97;;;23.96;100.00
12785;BME280;6456;42.680;23.260;2023-07-16T02:51:24;94887.84;;;24.09;100.00
12785;BME280;6456;42.680;23.260;2023-07-16T02:53:52;94886.56;;;24.02;100.00
12785;BME280;6456;42.680;23.260;2023-07-16T02:56:21;94797.88;;;23.41;100.00
12785;BME280;6456;42.680;23.260;2023-07-16T02:58:50;94898.13;;;24.02;100.00
12785;BME280;6456;42.680;23.260;2023-07-16T03:01:17;94790.69;;;23.36;100.00
12785;BME280;6456;42.680;23.260;2023-07-16T03:03:44;94823.47;;;23.57;100.00
12785;BME280;6456;42.680;23.260;2023-07-16T03:06:11;94809.63;;;23.45;100.00
12785;BME280;6456;42.680;23.260;2023-07-16T03:08:38;94802.19;;;23.42;100.00
12785;BME280;6456;42.680;23.260;2023-07-16T03:11:05;94868.44;;;23.89;100.00
12785;BME280;6456;42.680;23.260;2023-07-16T03:13:34;94895.41;;;24.07;100.00
12785;BME280;6456;42.680;23.260;2023-07-16T03:16:01;94870.13;;;23.85;100.00
12785;BME280;6456;42.680;23.260;2023-07-16T03:18:29;94795.00;;;23.32;100.00
12785;BME280;6456;42.680;23.260;2023-07-16T03:20:57;94792.03;;;23.34;100.00
12785;BME280;6456;42.680;23.260;2023-07-16T03:23:24;94854.97;;;23.70;100.00
12785;BME280;6456;42.680;23.260;2023-07-16T03:25:52;94907.75;;;24.03;100.00
12785;BME280;6456;42.680;23.260;2023-07-16T03:28:19;94841.63;;;23.65;100.00
12785;BME280;6456;42.680;23.260;2023-07-16T03:30:48;94922.78;;;24.09;100.00
12785;BME280;6456;42.680;23.260;2023-07-16T03:33:16;94860.81;;;23.77;100.00
12785;BME280;6456;42.680;23.260;2023-07-16T03:35:43;94876.81;;;23.87;100.00
12785;BME280;6456;42.680;23.260;2023-07-16T03:38:10;94895.19;;;23.99;100.00
12785;BME280;6456;42.680;23.260;2023-07-16T03:40:38;94913.84;;;24.14;100.00
12785;BME280;6456;42.680;23.260;2023-07-16T03:43:05;94916.97;;;24.21;100.00
12785;BME280;6456;42.680;23.260;2023-07-16T03:45:32;94816.50;;;23.56;100.00
12785;BME280;6456;42.680;23.260;2023-07-16T03:48:00;94916.41;;;24.24;100.00
12785;BME280;6456;42.680;23.260;2023-07-16T03:50:27;94897.97;;;24.12;100.00
12785;BME280;6456;42.680;23.260;2023-07-16T03:52:56;94922.94;;;24.37;100.00
12785;BME280;6456;42.680;23.260;2023-07-16T03:55:23;94862.63;;;24.00;100.00
12785;BME280;6456;42.680;23.260;2023-07-16T03:57:53;94908.91;;;24.21;100.00
12785;BME280;6456;42.680;23.260;2023-07-16T04:00:20;94822.69;;;23.75;100.00
12785;BME280;6456;42.680;23.260;2023-07-16T04:02:47;94892.34;;;24.14;100.00
12785;BME280;6456;42.680;23.260;2023-07-16T04:05:16;94865.00;;;24.07;100.00
12785;BME280;6456;42.680;23.260;2023-07-16T04:07:45;94930.72;;;24.57;100.00
12785;BME280;6456;42.680;23.260;2023-07-16T04:10:12;94941.41;;;24.62;100.00
12785;BME280;6456;42.680;23.260;2023-07-16T04:12:39;94918.41;;;24.51;100.00
12785;BME280;6456;42.680;23.260;2023-07-16T04:15:08;94874.69;;;24.27;100.00
12785;BME280;6456;42.680;23.260;2023-07-16T04:17:36;94854.91;;;24.17;100.00
12785;BME280;6456;42.680;23.260;2023-07-16T04:20:04;94826.03;;;24.04;100.00
12785;BME280;6456;42.680;23.260;2023-07-16T04:22:33;94842.84;;;24.15;100.00
12785;BME280;6456;42.680;23.260;2023-07-16T04:25:00;94867.34;;;24.32;100.00
12785;BME280;6456;42.680;23.260;2023-07-16T04:27:27;94901.31;;;24.60;100.00
12785;BME280;6456;42.680;23.260;2023-07-16T04:29:56;94899.34;;;24.66;100.00
12785;BME280;6456;42.680;23.260;2023-07-16T04:35:45;94927.59;;;24.87;100.00
12785;BME280;6456;42.680;23.260;2023-07-16T04:38:16;94843.34;;;24.36;100.00
12785;BME280;6456;42.680;23.260;2023-07-16T04:40:43;94814.72;;;24.26;100.00
12785;BME280;6456;42.680;23.260;2023-07-16T04:43:10;94903.56;;;24.72;100.00
12785;BME280;6456;42.680;23.260;2023-07-16T04:45:37;94910.84;;;24.71;100.00
12785;BME280;6456;42.680;23.260;2023-07-16T04:48:05;94931.06;;;24.69;100.00
12785;BME280;6456;42.680;23.260;2023-07-16T04:50:32;94942.63;;;24.69;100.00
12785;BME280;6456;42.680;23.260;2023-07-16T04:52:59;94896.78;;;24.42;100.00
12785;BME280;6456;42.680;23.260;2023-07-16T04:55:27;94948.81;;;24.70;100.00
12785;BME280;6456;42.680;23.260;2023-07-16T04:57:54;94958.41;;;24.76;100.00
12785;BME280;6456;42.680;23.260;2023-07-16T05:00:22;94859.50;;;24.17;100.00
12785;BME280;6456;42.680;23.260;2023-07-16T05:02:49;94924.84;;;24.55;100.00
12785;BME280;6456;42.680;23.260;2023-07-16T05:05:16;94894.50;;;24.31;100.00
12785;BME280;6456;42.680;23.260;2023-07-16T05:07:43;94961.25;;;24.84;100.00
12785;BME280;6456;42.680;23.260;2023-07-16T05:10:10;94924.75;;;24.60;100.00
12785;BME280;6456;42.680;23.260;2023-07-16T05:12:39;94911.47;;;24.50;100.00
12785;BME280;6456;42.680;23.260;2023-07-16T05:15:09;94929.84;;;24.61;100.00
12785;BME280;6456;42.680;23.260;2023-07-16T05:17:37;94894.09;;;24.42;100.00
12785;BME280;6456;42.680;23.260;2023-07-16T05:20:05;94909.69;;;24.59;100.00
12785;BME280;6456;42.680;23.260;2023-07-16T05:22:32;94948.16;;;24.97;100.00
12785;BME280;6456;42.680;23.260;2023-07-16T05:24:59;94957.78;;;25.16;100.00
12785;BME280;6456;42.680;23.260;2023-07-16T05:27:27;94964.00;;;25.30;100.00
12785;BME280;6456;42.680;23.260;2023-07-16T05:29:56;94886.03;;;24.74;100.00
12785;BME280;6456;42.680;23.260;2023-07-16T05:32:23;94855.22;;;24.67;100.00
12785;BME280;6456;42.680;23.260;2023-07-16T05:34:50;94943.00;;;25.14;100.00
12785;BME280;6456;42.680;23.260;2023-07-16T05:37:17;94945.13;;;25.30;100.00
12785;BME280;6456;42.680;23.260;2023-07-16T05:39:43;94970.97;;;25.50;100.00
12785;BME280;6456;42.680;23.260;2023-07-16T05:42:10;94883.78;;;24.81;100.00
12785;BME280;6456;42.680;23.260;2023-07-16T05:44:37;94949.03;;;25.24;100.00
12785;BME280;6456;42.680;23.260;2023-07-16T05:47:05;94976.03;;;25.52;100.00
12785;BME280;6456;42.680;23.260;2023-07-16T05:49:33;94899.59;;;25.02;99.57
12785;BME280;6456;42.680;23.260;2023-07-16T05:52:00;94980.66;;;25.65;99.54
12785;BME280;6456;42.680;23.260;2023-07-16T05:54:30;94948.41;;;25.60;98.62
12785;BME280;6456;42.680;23.260;2023-07-16T05:56:57;94875.00;;;25.22;98.36
12785;BME280;6456;42.680;23.260;2023-07-16T05:59:24;94977.78;;;26.02;97.94
12785;BME280;6456;42.680;23.260;2023-07-16T06:01:51;94982.47;;;26.10;96.98
12785;BME280;6456;42.680;23.260;2023-07-16T06:04:20;94977.78;;;26.02;95.81
12785;BME280;6456;42.680;23.260;2023-07-16T06:06:46;94975.78;;;25.94;96.14
12785;BME280;6456;42.680;23.260;2023-07-16T06:09:13;94944.53;;;25.79;95.69
12785;BME280;6456;42.680;23.260;2023-07-16T06:11:40;94971.00;;;26.04;96.56
12785;BME280;6456;42.680;23.260;2023-07-16T06:14:08;94913.19;;;25.70;95.14
12785;BME280;6456;42.680;23.260;2023-07-16T06:16:35;94986.09;;;26.19;95.62
12785;BME280;6456;42.680;23.260;2023-07-16T06:19:02;94952.75;;;26.15;95.58
12785;BME280;6456;42.680;23.260;2023-07-16T06:21:30;94973.69;;;26.45;92.22
12785;BME280;6456;42.680;23.260;2023-07-16T06:23:57;94910.44;;;26.10;91.89
12785;BME280;6456;42.680;23.260;2023-07-16T06:26:24;94908.56;;;26.25;90.61
12785;BME280;6456;42.680;23.260;2023-07-16T06:28:51;94975.75;;;26.48;89.82
12785;BME280;6456;42.680;23.260;2023-07-16T06:31:18;94935.13;;;26.31;90.34
12785;BME280;6456;42.680;23.260;2023-07-16T06:33:45;94975.16;;;26.51;90.67
12785;BME280;6456;42.680;23.260;2023-07-16T06:36:13;94902.78;;;26.04;90.31
12785;BME280;6456;42.680;23.260;2023-07-16T06:38:41;94934.31;;;26.31;91.43
12785;BME280;6456;42.680;23.260;2023-07-16T06:41:08;94918.66;;;26.33;90.10
12785;BME280;6456;42.680;23.260;2023-07-16T06:43:35;94946.19;;;26.43;90.49
12785;BME280;6456;42.680;23.260;2023-07-16T06:46:01;94966.66;;;26.58;89.46
12785;BME280;6456;42.680;23.260;2023-07-16T06:48:29;94968.44;;;26.62;89.55
12785;BME280;6456;42.680;23.260;2023-07-16T06:50:55;94976.59;;;26.71;88.40
12785;BME280;6456;42.680;23.260;2023-07-16T06:53:22;94969.41;;;26.66;88.12
12785;BME280;6456;42.680;23.260;2023-07-16T06:55:50;94963.75;;;26.54;87.96
12785;BME280;6456;42.680;23.260;2023-07-16T06:58:17;94881.69;;;26.06;88.70
12785;BME280;6456;42.680;23.260;2023-07-16T07:00:44;94902.56;;;26.28;89.42
12785;BME280;6456;42.680;23.260;2023-07-16T07:03:11;94905.03;;;26.38;90.31
12785;BME280;6456;42.680;23.260;2023-07-16T07:05:41;94980.59;;;26.87;89.74
12785;BME280;6456;42.680;23.260;2023-07-16T07:08:07;94974.75;;;26.94;87.82
12785;BME280;6456;42.680;23.260;2023-07-16T07:10:35;94969.09;;;27.04;86.09
12785;BME280;6456;42.680;23.260;2023-07-16T07:13:04;94869.91;;;26.51;85.74
12785;BME280;6456;42.680;23.260;2023-07-16T07:15:31;94966.03;;;27.19;87.51
12785;BME280;6456;42.680;23.260;2023-07-16T07:17:58;94961.00;;;27.26;86.16
12785;BME280;6456;42.680;23.260;2023-07-16T07:20:25;94922.81;;;27.19;84.63
12785;BME280;6456;42.680;23.260;2023-07-16T07:22:52;94924.66;;;27.32;83.79
12785;BME280;6456;42.680;23.260;2023-07-16T07:25:18;94972.81;;;27.61;85.96
12785;BME280;6456;42.680;23.260;2023-07-16T07:27:45;94947.66;;;27.52;83.26
12785;BME280;6456;42.680;23.260;2023-07-16T07:30:13;94966.81;;;27.64;84.56
12785;BME280;6456;42.680;23.260;2023-07-16T07:32:41;94956.13;;;27.59;85.58
12785;BME280;6456;42.680;23.260;2023-07-16T07:35:07;94956.00;;;27.64;86.92
12785;BME280;6456;42.680;23.260;2023-07-16T07:37:34;94866.81;;;27.11;85.46
12785;BME280;6456;42.680;23.260;2023-07-16T07:40:01;94893.41;;;27.17;84.91
12785;BME280;6456;42.680;23.260;2023-07-16T07:42:32;94954.03;;;27.56;83.17
12785;BME280;6456;42.680;23.260;2023-07-16T07:44:59;94955.19;;;27.63;84.74
12785;BME280;6456;42.680;23.260;2023-07-16T07:47:27;94925.09;;;27.48;85.71
12785;BME280;6456;42.680;23.260;2023-07-16T07:49:54;94909.53;;;27.31;84.05
12785;BME280;6456;42.680;23.260;2023-07-16T07:52:21;94930.66;;;27.51;83.75
12785;BME280;6456;42.680;23.260;2023-07-16T07:54:48;94946.81;;;27.73;83.51
12785;BME280;6456;42.680;23.260;2023-07-16T07:57:15;94907.44;;;27.50;81.81
12785;BME280;6456;42.680;23.260;2023-07-16T07:59:42;94915.56;;;27.59;82.02
12785;BME280;6456;42.680;23.260;2023-07-16T08:02:09;94883.41;;;27.40;83.37
12785;BME280;6456;42.680;23.260;2023-07-16T08:04:37;94923.59;;;27.81;81.78
12785;BME280;6456;42.680;23.260;2023-07-16T08:07:04;94855.63;;;27.48;79.68
12785;BME280;6456;42.680;23.260;2023-07-16T08:09:32;94900.22;;;27.76;81.21
12785;BME280;6456;42.680;23.260;2023-07-16T08:11:59;94940.69;;;27.98;80.23
12785;BME280;6456;42.680;23.260;2023-07-16T08:14:25;94919.06;;;27.98;81.84
12785;BME280;6456;42.680;23.260;2023-07-16T08:16:52;94863.63;;;27.70;80.84
12785;BME280;6456;42.680;23.260;2023-07-16T08:19:19;94870.31;;;27.81;77.64
12785;BME280;6456;42.680;23.260;2023-07-16T08:21:47;94959.16;;;28.44;76.62
12785;BME280;6456;42.680;23.260;2023-07-16T08:24:14;94929.53;;;28.31;76.80
12785;BME280;6456;42.680;23.260;2023-07-16T08:26:41;94955.97;;;28.59;75.48
12785;BME280;6456;42.680;23.260;2023-07-16T08:29:08;94916.78;;;28.23;75.40
12785;BME280;6456;42.680;23.260;2023-07-16T08:31:35;94905.47;;;28.21;75.88
12785;BME280;6456;42.680;23.260;2023-07-16T08:34:02;94914.22;;;28.26;76.15
12785;BME280;6456;42.680;23.260;2023-07-16T08:36:29;94962.72;;;28.79;75.40
12785;BME280;6456;42.680;23.260;2023-07-16T08:38:57;94859.31;;;28.17;73.89
12785;BME280;6456;42.680;23.260;2023-07-16T08:41:24;94917.91;;;28.56;76.28
12785;BME280;6456;42.680;23.260;2023-07-16T08:43:56;94963.84;;;28.95;74.78
12785;BME280;6456;42.680;23.260;2023-07-16T08:46:24;94855.16;;;28.37;72.68
12785;BME280;6456;42.680;23.260;2023-07-16T08:48:51;94937.56;;;28.96;73.27
12785;BME280;6456;42.680;23.260;2023-07-16T08:51:20;94889.28;;;28.81;72.87
12785;BME280;6456;42.680;23.260;2023-07-16T08:53:48;94924.28;;;29.11;71.40
12785;BME280;6456;42.680;23.260;2023-07-16T08:56:17;94887.03;;;29.00;71.92
12785;BME280;6456;42.680;23.260;2023-07-16T08:58:44;94929.88;;;29.32;70.61
12785;BME280;6456;42.680;23.260;2023-07-16T09:01:11;94949.31;;;29.43;70.62
12785;BME280;6456;42.680;23.260;2023-07-16T09:03:38;94910.25;;;29.27;68.82
12785;BME280;6456;42.680;23.260;2023-07-16T09:06:05;94871.84;;;29.16;69.43
12785;BME280;6456;42.680;23.260;2023-07-16T09:08:33;94933.31;;;29.50;68.52
12785;BME280;6456;42.680;23.260;2023-07-16T09:10:59;94928.25;;;29.40;69.60
12785;BME280;6456;42.680;23.260;2023-07-16T09:13:29;94921.38;;;29.51;68.84
12785;BME280;6456;42.680;23.260;2023-07-16T09:15:57;94870.56;;;29.22;66.59
12785;BME280;6456;42.680;23.260;2023-07-16T09:18:25;94856.06;;;29.27;67.24
12785;BME280;6456;42.680;23.260;2023-07-16T09:20:55;94902.97;;;29.65;66.77
12785;BME280;6456;42.680;23.260;2023-07-16T09:23:24;94876.72;;;29.48;65.60
12785;BME280;6456;42.680;23.260;2023-07-16T09:25:52;94835.34;;;29.31;65.63
12785;BME280;6456;42.680;23.260;2023-07-16T09:28:19;94898.28;;;29.74;65.34
12785;BME280;6456;42.680;23.260;2023-07-16T09:30:48;94918.72;;;29.89;64.87
12785;BME280;6456;42.680;23.260;2023-07-16T09:33:16;94913.75;;;29.91;67.60
12785;BME280;6456;42.680;23.260;2023-07-16T09:35:43;94834.13;;;29.49;64.71
12785;BME280;6456;42.680;23.260;2023-07-16T09:38:11;94930.06;;;30.11;65.90
12785;BME280;6456;42.680;23.260;2023-07-16T09:40:39;94930.34;;;30.18;65.59
12785;BME280;6456;42.680;23.260;2023-07-16T09:43:08;94922.03;;;30.23;64.40
12785;BME280;6456;42.680;23.260;2023-07-16T09:45:35;94878.56;;;30.03;64.63
12785;BME280;6456;42.680;23.260;2023-07-16T09:48:05;94875.00;;;30.11;63.73
12785;BME280;6456;42.680;23.260;2023-07-16T09:50:33;94926.72;;;30.43;65.08
12785;BME280;6456;42.680;23.260;2023-07-16T09:53:01;94866.88;;;30.11;63.38
12785;BME280;6456;42.680;23.260;2023-07-16T09:55:31;94910.50;;;30.56;65.39
12785;BME280;6456;42.680;23.260;2023-07-16T09:58:00;94908.69;;;30.60;64.18
12785;BME280;6456;42.680;23.260;2023-07-16T10:00:27;94912.56;;;30.59;61.55
12785;BME280;6456;42.680;23.260;2023-07-16T10:02:55;94902.84;;;30.49;63.25
12785;BME280;6456;42.680;23.260;2023-07-16T10:05:26;94845.28;;;30.14;68.45
12785;BME280;6456;42.680;23.260;2023-07-16T10:07:55;94861.91;;;30.33;65.64
12785;BME280;6456;42.680;23.260;2023-07-16T10:10:27;94909.91;;;30.71;68.32
12785;BME280;6456;42.680;23.260;2023-07-16T10:13:04;94902.34;;;30.76;63.22
12785;BME280;6456;42.680;23.260;2023-07-16T10:15:31;94860.88;;;30.46;62.49
12785;BME280;6456;42.680;23.260;2023-07-16T10:17:58;94875.91;;;30.65;63.38
12785;BME280;6456;42.680;23.260;2023-07-16T10:20:30;94846.84;;;30.44;62.51
12785;BME280;6456;42.680;23.260;2023-07-16T10:22:58;94860.63;;;30.39;62.54
12785;BME280;6456;42.680;23.260;2023-07-16T10:25:26;94844.06;;;30.53;73.18
12785;BME280;6456;42.680;23.260;2023-07-16T10:27:55;94811.06;;;30.22;64.75
12785;BME280;6456;42.680;23.260;2023-07-16T10:30:22;94891.34;;;30.73;63.85
12785;BME280;6456;42.680;23.260;2023-07-16T10:32:51;94842.22;;;30.45;60.38
12785;BME280;6456;42.680;23.260;2023-07-16T10:35:18;94887.56;;;30.86;67.86
12785;BME280;6456;42.680;23.260;2023-07-16T10:37:47;94844.31;;;30.60;66.50
12785;BME280;6456;42.680;23.260;2023-07-16T10:40:16;94873.19;;;30.85;69.67
12785;BME280;6456;42.680;23.260;2023-07-16T10:42:45;94849.38;;;30.82;72.93
12785;BME280;6456;42.680;23.260;2023-07-16T10:45:13;94830.34;;;30.70;65.11
12785;BME280;6456;42.680;23.260;2023-07-16T10:47:52;94838.41;;;30.79;65.82
12785;BME280;6456;42.680;23.260;2023-07-16T10:50:20;94846.41;;;30.96;76.52
12785;BME280;6456;42.680;23.260;2023-07-16T10:52:54;94871.38;;;31.10;68.93
12785;BME280;6456;42.680;23.260;2023-07-16T10:55:22;94857.56;;;31.15;70.55
12785;BME280;6456;42.680;23.260;2023-07-16T10:57:50;94829.31;;;30.95;68.59
12785;BME280;6456;42.680;23.260;2023-07-16T11:00:21;94869.59;;;31.26;70.19
12785;BME280;6456;42.680;23.260;2023-07-16T11:02:49;94820.72;;;30.93;67.18
12785;BME280;6456;42.680;23.260;2023-07-16T11:05:19;94871.97;;;31.28;61.52
12785;BME280;6456;42.680;23.260;2023-07-16T11:07:47;94878.00;;;31.33;56.83
12785;BME280;6456;42.680;23.260;2023-07-16T11:10:16;94879.72;;;31.38;57.35
12785;BME280;6456;42.680;23.260;2023-07-16T11:12:44;94877.06;;;31.29;55.80
12785;BME280;6456;42.680;23.260;2023-07-16T11:15:11;94871.31;;;31.31;56.83
12785;BME280;6456;42.680;23.260;2023-07-16T11:17:39;94807.31;;;30.88;56.30
12785;BME280;6456;42.680;23.260;2023-07-16T11:20:08;94763.88;;;30.68;61.60
12785;BME280;6456;42.680;23.260;2023-07-16T11:22:37;94858.84;;;31.42;66.53
12785;BME280;6456;42.680;23.260;2023-07-16T11:25:11;94811.81;;;31.29;71.39
12785;BME280;6456;42.680;23.260;2023-07-16T11:27:40;94773.06;;;31.08;64.03
12785;BME280;6456;42.680;23.260;2023-07-16T11:30:08;94804.69;;;31.37;59.64
12785;BME280;6456;42.680;23.260;2023-07-16T11:32:42;94800.28;;;31.32;53.33
12785;BME280;6456;42.680;23.260;2023-07-16T11:35:16;94799.03;;;31.42;53.42
12785;BME280;6456;42.680;23.260;2023-07-16T11:37:44;94826.16;;;31.75;54.23
12785;BME280;6456;42.680;23.260;2023-07-16T11:40:15;94839.44;;;31.88;50.52
12785;BME280;6456;42.680;23.260;2023-07-16T11:42:44;94785.13;;;31.55;50.82
12785;BME280;6456;42.680;23.260;2023-07-16T11:45:19;94845.44;;;32.06;48.45
12785;BME280;6456;42.680;23.260;2023-07-16T11:47:46;94852.81;;;32.17;50.68
12785;BME280;6456;42.680;23.260;2023-07-16T11:50:13;94847.56;;;32.24;46.56
12785;BME280;6456;42.680;23.260;2023-07-16T11:52:40;94807.09;;;32.11;51.69
12785;BME280;6456;42.680;23.260;2023-07-16T11:55:07;94810.47;;;32.20;52.36
12785;BME280;6456;42.680;23.260;2023-07-16T11:57:35;94776.84;;;32.00;45.26
12785;BME280;6456;42.680;23.260;2023-07-16T12:00:05;94782.81;;;32.18;49.58
12785;BME280;6456;42.680;23.260;2023-07-16T12:02:32;94837.16;;;32.66;48.69
12785;BME280;6456;42.680;23.260;2023-07-16T12:04:59;94831.06;;;32.57;44.36
12785;BME280;6456;42.680;23.260;2023-07-16T12:07:32;94835.31;;;32.70;45.76
12785;BME280;6456;42.680;23.260;2023-07-16T12:10:00;94815.94;;;32.60;45.95
12785;BME280;6456;42.680;23.260;2023-07-16T12:12:27;94823.75;;;32.73;45.40
12785;BME280;6456;42.680;23.260;2023-07-16T12:14:54;94790.41;;;32.64;44.20
12785;BME280;6456;42.680;23.260;2023-07-16T12:17:22;94820.81;;;32.94;47.20
12785;BME280;6456;42.680;23.260;2023-07-16T12:19:49;94742.34;;;32.44;45.94
12785;BME280;6456;42.680;23.260;2023-07-16T12:22:17;94745.28;;;32.51;47.45
12785;BME280;6456;42.680;23.260;2023-07-16T12:24:44;94817.44;;;33.13;46.26
12785;BME280;6456;42.680;23.260;2023-07-16T12:27:12;94810.19;;;33.05;46.40
12785;BME280;6456;42.680;23.260;2023-07-16T12:29:38;94815.13;;;33.15;46.47
12785;BME280;6456;42.680;23.260;2023-07-16T12:32:06;94819.09;;;33.17;48.00
12785;BME280;6456;42.680;23.260;2023-07-16T12:34:35;94819.56;;;33.19;47.09
12785;BME280;6456;42.680;23.260;2023-07-16T12:37:02;94771.59;;;32.75;44.71
12785;BME280;6456;42.680;23.260;2023-07-16T12:39:29;94757.66;;;32.76;44.25
12785;BME280;6456;42.680;23.260;2023-07-16T12:41:56;94775.41;;;32.86;42.12
12785;BME280;6456;42.680;23.260;2023-07-16T12:44:23;94795.53;;;33.09;40.45
12785;BME280;6456;42.680;23.260;2023-07-16T12:46:50;94764.66;;;32.77;41.71
12785;BME280;6456;42.680;23.260;2023-07-16T12:49:17;94804.84;;;33.08;40.66
12785;BME280;6456;42.680;23.260;2023-07-16T12:51:46;94814.00;;;33.16;42.30
12785;BME280;6456;42.680;23.260;2023-07-16T12:54:16;94803.47;;;33.14;40.69
12785;BME280;6456;42.680;23.260;2023-07-16T12:56:57;94737.16;;;32.82;38.96
12785;BME280;6456;42.680;23.260;2023-07-16T12:59:24;94808.50;;;33.43;38.16
12785;BME280;6456;42.680;23.260;2023-07-16T13:01:51;94702.16;;;32.84;40.08